sensor_id;sensor_type;location;lat;lon;timestamp;pressure;altitude;pressure_sealevel;temperature;humidity
68891;BME280;55932;48.702;8.884;2023-02-01T00:02:23;96790;;;2.4;76
68891;BME280;55932;48.702;8.884;2023-02-01T00:04:47;96780;;;2.3;76
68891;BME280;55932;48.702;8.884;2023-02-01T00:07:18;96780;;;2.3;76
68891;BME280;55932;48.702;8.884;2023-02-01T00:09:49;96780;;;2.4;76
68891;BME280;55932;48.702;8.884;2023-02-01T00:14:56;96780;;;2.3;76
68891;BME280;55932;48.702;8.884;2023-02-01T00:20:10;96770;;;2.4;76
68891;BME280;55932;48.702;8.884;2023-02-01T00:22:27;96770;;;2.4;75.5
68891;BME280;55932;48.702;8.884;2023-02-01T00:24:57;96770;;;2.3;76
68891;BME280;55932;48.702;8.884;2023-02-01T00:29:51;96770;;;2.3;76
68891;BME280;55932;48.702;8.884;2023-02-01T00:32:28;96780;;;2.3;76
68891;BME280;55932;48.702;8.884;2023-02-01T00:34:53;96760;;;2.3;76
68891;BME280;55932;48.702;8.884;2023-02-01T00:37:24;96760;;;2.4;76
68891;BME280;55932;48.702;8.884;2023-02-01T00:45:14;96750;;;2.3;76
68891;BME280;55932;48.702;8.884;2023-02-01T00:47:45;96760;;;2.2;76
68891;BME280;55932;48.702;8.884;2023-02-01T00:50:02;96740;;;2.2;76
68891;BME280;55932;48.702;8.884;2023-02-01T00:54:56;96750;;;2.3;76
68891;BME280;55932;48.702;8.884;2023-02-01T00:57:27;96750;;;2.3;76
68891;BME280;55932;48.702;8.884;2023-02-01T00:59:58;96750;;;2.3;76
68891;BME280;55932;48.702;8.884;2023-02-01T01:02:29;96740;;;2.3;76
68891;BME280;55932;48.702;8.884;2023-02-01T01:05:06;96740;;;2.4;76
68891;BME280;55932;48.702;8.884;2023-02-01T01:07:36;96750;;;2.4;76
68891;BME280;55932;48.702;8.884;2023-02-01T01:10:13;96760;;;2.4;76
68891;BME280;55932;48.702;8.884;2023-02-01T01:15:01;96740;;;2.4;76
68891;BME280;55932;48.702;8.884;2023-02-01T01:17:32;96730;;;2.5;76
68891;BME280;55932;48.702;8.884;2023-02-01T01:20:03;96730;;;2.5;76
68891;BME280;55932;48.702;8.884;2023-02-01T01:22:26;96730;;;2.4;76
68891;BME280;55932;48.702;8.884;2023-02-01T01:24:57;96730;;;2.5;76
68891;BME280;55932;48.702;8.884;2023-02-01T01:27:28;96720;;;2.5;76
68891;BME280;55932;48.702;8.884;2023-02-01T01:29:58;96720;;;2.5;76
68891;BME280;55932;48.702;8.884;2023-02-01T01:37:31;96720;;;2.5;76
68891;BME280;55932;48.702;8.884;2023-02-01T01:40:03;96710;;;2.5;75.5
68891;BME280;55932;48.702;8.884;2023-02-01T01:45:41;96720;;;2.5;75.5
68891;BME280;55932;48.702;8.884;2023-02-01T01:47:42;96720;;;2.5;75.5
68891;BME280;55932;48.702;8.884;2023-02-01T01:52:35;96720;;;2.5;75.5
68891;BME280;55932;48.702;8.884;2023-02-01T01:55:06;96720;;;2.5;75.5
68891;BME280;55932;48.702;8.884;2023-02-01T01:57:38;96710;;;2.5;75.5
68891;BME280;55932;48.702;8.884;2023-02-01T02:05:09;96700;;;2.5;75.5
68891;BME280;55932;48.702;8.884;2023-02-01T02:07:41;96700;;;2.6;75.5
68891;BME280;55932;48.702;8.884;2023-02-01T02:10:11;96700;;;2.6;75.5
68891;BME280;55932;48.702;8.884;2023-02-01T02:12:42;96700;;;2.6;75.5
68891;BME280;55932;48.702;8.884;2023-02-01T02:15:12;96700;;;2.6;75.5
68891;BME280;55932;48.702;8.884;2023-02-01T02:17:49;96700;;;2.6;75.5
68891;BME280;55932;48.702;8.884;2023-02-01T02:20:20;96690;;;2.7;75.5
68891;BME280;55932;48.702;8.884;2023-02-01T02:25:31;96700;;;2.8;75.5
68891;BME280;55932;48.702;8.884;2023-02-01T02:30:35;96690;;;2.8;75.5
68891;BME280;55932;48.702;8.884;2023-02-01T02:33:36;96690;;;2.8;75.5
68891;BME280;55932;48.702;8.884;2023-02-01T02:38:22;96680;;;2.8;75.5
68891;BME280;55932;48.702;8.884;2023-02-01T02:40:33;96680;;;2.8;75.5
68891;BME280;55932;48.702;8.884;2023-02-01T02:45:28;96690;;;2.8;75.5
68891;BME280;55932;48.702;8.884;2023-02-01T02:48:03;96690;;;2.8;75.5
68891;BME280;55932;48.702;8.884;2023-02-01T02:52:54;96680;;;2.8;75
68891;BME280;55932;48.702;8.884;2023-02-01T03:02:55;96680;;;2.8;75.5
68891;BME280;55932;48.702;8.884;2023-02-01T03:05:31;96670;;;2.7;75.5
68891;BME280;55932;48.702;8.884;2023-02-01T03:07:59;96660;;;2.6;75.5
68891;BME280;55932;48.702;8.884;2023-02-01T03:11:00;96670;;;2.6;75.5
68891;BME280;55932;48.702;8.884;2023-02-01T03:15:38;96680;;;2.6;75.5
68891;BME280;55932;48.702;8.884;2023-02-01T03:18:13;96680;;;2.6;75.5
68891;BME280;55932;48.702;8.884;2023-02-01T03:20:37;96680;;;2.7;75.5
68891;BME280;55932;48.702;8.884;2023-02-01T03:30:37;96680;;;2.8;75.5
68891;BME280;55932;48.702;8.884;2023-02-01T03:33:05;96670;;;2.8;75.5
68891;BME280;55932;48.702;8.884;2023-02-01T03:36:40;96660;;;2.8;75.5
68891;BME280;55932;48.702;8.884;2023-02-01T03:38:08;96650;;;2.9;75.5
68891;BME280;55932;48.702;8.884;2023-02-01T03:40:43;96650;;;2.9;75.5
68891;BME280;55932;48.702;8.884;2023-02-01T03:43:14;96650;;;2.9;75.5
68891;BME280;55932;48.702;8.884;2023-02-01T03:45:46;96640;;;2.9;75.5
68891;BME280;55932;48.702;8.884;2023-02-01T03:50:43;96630;;;2.9;75.5
68891;BME280;55932;48.702;8.884;2023-02-01T03:58:13;96620;;;3;75.5
68891;BME280;55932;48.702;8.884;2023-02-01T04:03:14;96620;;;3;75.5
68891;BME280;55932;48.702;8.884;2023-02-01T04:05:44;96630;;;3.1;75.5
68891;BME280;55932;48.702;8.884;2023-02-01T04:08:15;96630;;;3.1;75.5
68891;BME280;55932;48.702;8.884;2023-02-01T04:10:53;96620;;;3.2;75.5
68891;BME280;55932;48.702;8.884;2023-02-01T04:13:23;96630;;;3.2;75.5
68891;BME280;55932;48.702;8.884;2023-02-01T04:15:54;96630;;;3.3;75.5
68891;BME280;55932;48.702;8.884;2023-02-01T04:28:22;96630;;;3.4;75.5
68891;BME280;55932;48.702;8.884;2023-02-01T04:30:53;96630;;;3.4;75.5
68891;BME280;55932;48.702;8.884;2023-02-01T04:33:23;96640;;;3.4;75.5
68891;BME280;55932;48.702;8.884;2023-02-01T04:35:54;96630;;;3.4;75.5
68891;BME280;55932;48.702;8.884;2023-02-01T04:38:32;96630;;;3.4;75.5
68891;BME280;55932;48.702;8.884;2023-02-01T04:41:03;96640;;;3.4;75.5
68891;BME280;55932;48.702;8.884;2023-02-01T04:45:57;96640;;;3.6;75.5
68891;BME280;55932;48.702;8.884;2023-02-01T04:48:28;96640;;;3.6;75.5
68891;BME280;55932;48.702;8.884;2023-02-01T04:56:01;96640;;;3.8;75
68891;BME280;55932;48.702;8.884;2023-02-01T04:58:32;96620;;;3.8;75
68891;BME280;55932;48.702;8.884;2023-02-01T05:03:33;96590;;;3.6;75.5
68891;BME280;55932;48.702;8.884;2023-02-01T05:06:04;96590;;;3.5;75.5
68891;BME280;55932;48.702;8.884;2023-02-01T05:08:41;96590;;;3.5;75.5
68891;BME280;55932;48.702;8.884;2023-02-01T05:11:12;96600;;;3.5;75.5
68891;BME280;55932;48.702;8.884;2023-02-01T05:13:43;96600;;;3.6;75.5
68891;BME280;55932;48.702;8.884;2023-02-01T05:18:38;96620;;;3.7;75.5
68891;BME280;55932;48.702;8.884;2023-02-01T05:21:09;96630;;;3.7;75.5
68891;BME280;55932;48.702;8.884;2023-02-01T05:23:40;96630;;;3.8;75.5
68891;BME280;55932;48.702;8.884;2023-02-01T05:31:12;96640;;;3.8;75.5
68891;BME280;55932;48.702;8.884;2023-02-01T05:33:43;96640;;;3.9;75.5
68891;BME280;55932;48.702;8.884;2023-02-01T05:36:14;96640;;;3.9;75.5
68891;BME280;55932;48.702;8.884;2023-02-01T05:41:21;96650;;;3.7;75.5
68891;BME280;55932;48.702;8.884;2023-02-01T05:43:53;96660;;;3.5;75.5
68891;BME280;55932;48.702;8.884;2023-02-01T05:46:23;96670;;;3.5;75.5
68891;BME280;55932;48.702;8.884;2023-02-01T05:51:19;96670;;;3.4;75.5
68891;BME280;55932;48.702;8.884;2023-02-01T06:01:21;96680;;;3.3;75.5
68891;BME280;55932;48.702;8.884;2023-02-01T06:03:52;96690;;;3.3;75.5
68891;BME280;55932;48.702;8.884;2023-02-01T06:06:23;96690;;;3.3;75.5
68891;BME280;55932;48.702;8.884;2023-02-01T06:08:53;96680;;;3.3;75.5
68891;BME280;55932;48.702;8.884;2023-02-01T06:11:24;96670;;;3.3;75.5
68891;BME280;55932;48.702;8.884;2023-02-01T06:13:55;96680;;;3.4;75.5
68891;BME280;55932;48.702;8.884;2023-02-01T06:16:33;96680;;;3.4;75.5
68891;BME280;55932;48.702;8.884;2023-02-01T06:19:03;96670;;;3.5;75.5
68891;BME280;55932;48.702;8.884;2023-02-01T06:21:35;96660;;;3.5;75.5
68891;BME280;55932;48.702;8.884;2023-02-01T06:24:12;96660;;;3.6;75.5
68891;BME280;55932;48.702;8.884;2023-02-01T06:26:49;96650;;;3.6;75.5
68891;BME280;55932;48.702;8.884;2023-02-01T06:29:20;96660;;;3.7;75.5
68891;BME280;55932;48.702;8.884;2023-02-01T06:31:56;96660;;;3.7;75.5
68891;BME280;55932;48.702;8.884;2023-02-01T06:34:14;96640;;;3.7;75.5
68891;BME280;55932;48.702;8.884;2023-02-01T06:36:44;96650;;;3.7;75.5
68891;BME280;55932;48.702;8.884;2023-02-01T06:39:14;96640;;;3.7;75.5
68891;BME280;55932;48.702;8.884;2023-02-01T06:41:51;96640;;;3.8;75.5
68891;BME280;55932;48.702;8.884;2023-02-01T06:44:15;96640;;;3.8;75.5
68891;BME280;55932;48.702;8.884;2023-02-01T06:46:44;96630;;;3.7;75.5
68891;BME280;55932;48.702;8.884;2023-02-01T06:49:09;96650;;;3.7;75.5
68891;BME280;55932;48.702;8.884;2023-02-01T06:51:46;96650;;;3.7;75.5
68891;BME280;55932;48.702;8.884;2023-02-01T06:59:19;96640;;;3.5;75.5
68891;BME280;55932;48.702;8.884;2023-02-01T07:01:49;96640;;;3.6;75.5
68891;BME280;55932;48.702;8.884;2023-02-01T07:04:20;96640;;;3.5;75.5
68891;BME280;55932;48.702;8.884;2023-02-01T07:09:13;96640;;;3.5;76
68891;BME280;55932;48.702;8.884;2023-02-01T07:11:44;96650;;;3.5;76
68891;BME280;55932;48.702;8.884;2023-02-01T07:14:15;96660;;;3.6;75.5
68891;BME280;55932;48.702;8.884;2023-02-01T07:22:00;96670;;;3.8;75.5
68891;BME280;55932;48.702;8.884;2023-02-01T07:24:36;96680;;;3.8;75.5
68891;BME280;55932;48.702;8.884;2023-02-01T07:29:18;96690;;;3.9;75.5
68891;BME280;55932;48.702;8.884;2023-02-01T07:31:49;96700;;;4;75.5
68891;BME280;55932;48.702;8.884;2023-02-01T07:36:50;96700;;;4;75.5
68891;BME280;55932;48.702;8.884;2023-02-01T07:39:19;96700;;;4.1;75.5
68891;BME280;55932;48.702;8.884;2023-02-01T07:41:50;96720;;;4.1;75.5
68891;BME280;55932;48.702;8.884;2023-02-01T07:49:21;96700;;;4.3;75.5
68891;BME280;55932;48.702;8.884;2023-02-01T07:51:52;96710;;;4.3;75.5
68891;BME280;55932;48.702;8.884;2023-02-01T07:54:22;96700;;;4.3;75.5
68891;BME280;55932;48.702;8.884;2023-02-01T07:56:53;96700;;;4.4;75.5
68891;BME280;55932;48.702;8.884;2023-02-01T08:02:05;96690;;;4.5;75.5
68891;BME280;55932;48.702;8.884;2023-02-01T08:04:35;96680;;;4.5;75.5
68891;BME280;55932;48.702;8.884;2023-02-01T08:07:05;96680;;;4.5;75.5
68891;BME280;55932;48.702;8.884;2023-02-01T08:09:35;96680;;;4.5;75.5
68891;BME280;55932;48.702;8.884;2023-02-01T08:14:24;96670;;;4.6;75.5
68891;BME280;55932;48.702;8.884;2023-02-01T08:16:55;96680;;;4.6;75.5
68891;BME280;55932;48.702;8.884;2023-02-01T08:19:25;96680;;;4.6;75.5
68891;BME280;55932;48.702;8.884;2023-02-01T08:21:57;96680;;;4.6;75.5
68891;BME280;55932;48.702;8.884;2023-02-01T08:24:26;96680;;;4.6;75.5
68891;BME280;55932;48.702;8.884;2023-02-01T08:26:57;96680;;;4.7;75.5
68891;BME280;55932;48.702;8.884;2023-02-01T08:29:34;96690;;;4.7;75.5
68891;BME280;55932;48.702;8.884;2023-02-01T08:31:58;96700;;;4.8;75.5
68891;BME280;55932;48.702;8.884;2023-02-01T08:37:10;96690;;;4.9;75.5
68891;BME280;55932;48.702;8.884;2023-02-01T08:42:21;96700;;;5;75.5
68891;BME280;55932;48.702;8.884;2023-02-01T08:44:41;96710;;;5.1;75.5
68891;BME280;55932;48.702;8.884;2023-02-01T08:49:42;96700;;;5.2;75.5
68891;BME280;55932;48.702;8.884;2023-02-01T08:52:12;96690;;;5.1;75.5
68891;BME280;55932;48.702;8.884;2023-02-01T08:54:42;96690;;;5.1;75.5
68891;BME280;55932;48.702;8.884;2023-02-01T08:57:12;96700;;;5;75.5
68891;BME280;55932;48.702;8.884;2023-02-01T09:04:32;96700;;;4.8;75.5
68891;BME280;55932;48.702;8.884;2023-02-01T09:07:03;96700;;;4.7;76
68891;BME280;55932;48.702;8.884;2023-02-01T09:09:34;96700;;;4.7;76
68891;BME280;55932;48.702;8.884;2023-02-01T09:12:04;96710;;;4.8;75.5
68891;BME280;55932;48.702;8.884;2023-02-01T09:14:34;96720;;;4.7;76
68891;BME280;55932;48.702;8.884;2023-02-01T09:17:05;96720;;;4.8;76
68891;BME280;55932;48.702;8.884;2023-02-01T09:19:35;96730;;;4.8;75.5
68891;BME280;55932;48.702;8.884;2023-02-01T09:22:06;96720;;;4.8;75.5
68891;BME280;55932;48.702;8.884;2023-02-01T09:24:36;96720;;;4.9;75.5
68891;BME280;55932;48.702;8.884;2023-02-01T09:29:49;96730;;;4.8;75.5
68891;BME280;55932;48.702;8.884;2023-02-01T09:32:42;96730;;;5;75.5
68891;BME280;55932;48.702;8.884;2023-02-01T09:43:26;96740;;;5.5;75
68891;BME280;55932;48.702;8.884;2023-02-01T09:44:53;96730;;;5.5;75.5
68891;BME280;55932;48.702;8.884;2023-02-01T09:47:21;96750;;;5.6;75
68891;BME280;55932;48.702;8.884;2023-02-01T09:49:59;96740;;;5.6;75
68891;BME280;55932;48.702;8.884;2023-02-01T09:54:40;96750;;;5.6;75
68891;BME280;55932;48.702;8.884;2023-02-01T09:57:14;96750;;;5.6;75.5
68891;BME280;55932;48.702;8.884;2023-02-01T09:59:41;96750;;;5.8;75
68891;BME280;55932;48.702;8.884;2023-02-01T10:02:12;96740;;;6;75
68891;BME280;55932;48.702;8.884;2023-02-01T10:13:31;96740;;;6.6;75
68891;BME280;55932;48.702;8.884;2023-02-01T10:15:09;96740;;;6.7;75.5
68891;BME280;55932;48.702;8.884;2023-02-01T10:17:31;96740;;;6.7;75.5
68891;BME280;55932;48.702;8.884;2023-02-01T10:27:29;96760;;;6.5;75.5
68891;BME280;55932;48.702;8.884;2023-02-01T10:29:59;96770;;;6.3;76
68891;BME280;55932;48.702;8.884;2023-02-01T10:32:34;96770;;;6.4;75.5
68891;BME280;55932;48.702;8.884;2023-02-01T10:37:23;96770;;;6.6;75.5
68891;BME280;55932;48.702;8.884;2023-02-01T10:39:47;96770;;;6.4;76
68891;BME280;55932;48.702;8.884;2023-02-01T10:42:17;96770;;;6.5;75.5
68891;BME280;55932;48.702;8.884;2023-02-01T10:52:21;96750;;;6.7;75.5
68891;BME280;55932;48.702;8.884;2023-02-01T11:02:33;96740;;;7;75.5
68891;BME280;55932;48.702;8.884;2023-02-01T11:05:03;96730;;;7;76
68891;BME280;55932;48.702;8.884;2023-02-01T11:07:32;96730;;;7;76
68891;BME280;55932;48.702;8.884;2023-02-01T11:20:05;96730;;;9.6;77
68891;BME280;55932;48.702;8.884;2023-02-01T11:25:07;96720;;;10.6;75.5
68891;BME280;55932;48.702;8.884;2023-02-01T11:27:36;96730;;;10;75.5
68891;BME280;55932;48.702;8.884;2023-02-01T11:30:13;96730;;;9.4;76
68891;BME280;55932;48.702;8.884;2023-02-01T11:32:38;96720;;;9.1;76
68891;BME280;55932;48.702;8.884;2023-02-01T11:35:11;96720;;;9.2;76.5
68891;BME280;55932;48.702;8.884;2023-02-01T11:37:41;96710;;;8.9;76
68891;BME280;55932;48.702;8.884;2023-02-01T11:40:35;96710;;;8.6;76
68891;BME280;55932;48.702;8.884;2023-02-01T11:43:01;96700;;;7.9;75.5
68891;BME280;55932;48.702;8.884;2023-02-01T11:45:30;96700;;;7.1;76.5
68891;BME280;55932;48.702;8.884;2023-02-01T11:47:29;96700;;;6.8;77
68891;BME280;55932;48.702;8.884;2023-02-01T11:50:00;96700;;;6.9;76.5
68891;BME280;55932;48.702;8.884;2023-02-01T11:53:04;96680;;;7.3;77
68891;BME280;55932;48.702;8.884;2023-02-01T11:55:05;96680;;;7.9;76.5
68891;BME280;55932;48.702;8.884;2023-02-01T11:57:51;96670;;;7.8;76.5
68891;BME280;55932;48.702;8.884;2023-02-01T12:10:25;96660;;;6.3;77
68891;BME280;55932;48.702;8.884;2023-02-01T12:12:39;96660;;;6.2;77
68891;BME280;55932;48.702;8.884;2023-02-01T12:15:22;96670;;;6.4;76.5
68891;BME280;55932;48.702;8.884;2023-02-01T12:17:56;96670;;;6.4;76.5
68891;BME280;55932;48.702;8.884;2023-02-01T12:22:55;96670;;;6.7;76
68891;BME280;55932;48.702;8.884;2023-02-01T12:25:20;96680;;;6.7;76
68891;BME280;55932;48.702;8.884;2023-02-01T12:30:32;96690;;;5.9;76.5
68891;BME280;55932;48.702;8.884;2023-02-01T12:33:00;96690;;;5.7;77
68891;BME280;55932;48.702;8.884;2023-02-01T12:37:57;96690;;;5.8;76.5
68891;BME280;55932;48.702;8.884;2023-02-01T12:40:27;96690;;;5.7;76
68891;BME280;55932;48.702;8.884;2023-02-01T12:42:56;96690;;;5.7;76
68891;BME280;55932;48.702;8.884;2023-02-01T12:45:31;96680;;;5.6;76
68891;BME280;55932;48.702;8.884;2023-02-01T12:48:33;96670;;;5.6;76
68891;BME280;55932;48.702;8.884;2023-02-01T12:52:58;96680;;;5.6;76
68891;BME280;55932;48.702;8.884;2023-02-01T12:58:09;96680;;;5.4;76
68891;BME280;55932;48.702;8.884;2023-02-01T13:00:36;96680;;;5.4;76
68891;BME280;55932;48.702;8.884;2023-02-01T13:05:31;96680;;;5.3;76
68891;BME280;55932;48.702;8.884;2023-02-01T13:08:00;96700;;;5.3;76
68891;BME280;55932;48.702;8.884;2023-02-01T13:10:35;96690;;;5.3;76
68891;BME280;55932;48.702;8.884;2023-02-01T13:18:16;96680;;;5.3;76
68891;BME280;55932;48.702;8.884;2023-02-01T13:20:55;96680;;;5.3;76
68891;BME280;55932;48.702;8.884;2023-02-01T13:25:35;96660;;;5.2;76
68891;BME280;55932;48.702;8.884;2023-02-01T13:28:06;96670;;;5.2;76
68891;BME280;55932;48.702;8.884;2023-02-01T13:31:45;96660;;;5.1;76
68891;BME280;55932;48.702;8.884;2023-02-01T13:33:10;96650;;;5.1;76
68891;BME280;55932;48.702;8.884;2023-02-01T13:36:05;96640;;;5.2;76
68891;BME280;55932;48.702;8.884;2023-02-01T13:38:14;96640;;;5.2;76
68891;BME280;55932;48.702;8.884;2023-02-01T13:45:34;96640;;;5.3;76
68891;BME280;55932;48.702;8.884;2023-02-01T13:48:04;96640;;;5.2;76
68891;BME280;55932;48.702;8.884;2023-02-01T13:50:35;96650;;;5.2;76
68891;BME280;55932;48.702;8.884;2023-02-01T13:53:14;96640;;;5.3;76
68891;BME280;55932;48.702;8.884;2023-02-01T14:00:39;96640;;;5.3;76
68891;BME280;55932;48.702;8.884;2023-02-01T14:08:24;96630;;;5.4;76
68891;BME280;55932;48.702;8.884;2023-02-01T14:10:56;96630;;;5.4;75.5
68891;BME280;55932;48.702;8.884;2023-02-01T14:16:10;96630;;;5.6;75.5
68891;BME280;55932;48.702;8.884;2023-02-01T14:18:49;96630;;;5.5;75.5
68891;BME280;55932;48.702;8.884;2023-02-01T14:20:48;96630;;;5.5;75.5
68891;BME280;55932;48.702;8.884;2023-02-01T14:28:21;96630;;;5.4;76
68891;BME280;55932;48.702;8.884;2023-02-01T14:30:45;96630;;;5.4;76
68891;BME280;55932;48.702;8.884;2023-02-01T14:33:18;96640;;;5.4;76
68891;BME280;55932;48.702;8.884;2023-02-01T14:35:54;96650;;;5.3;76
68891;BME280;55932;48.702;8.884;2023-02-01T14:38:17;96660;;;5.3;76
68891;BME280;55932;48.702;8.884;2023-02-01T14:40:49;96640;;;5.3;76
68891;BME280;55932;48.702;8.884;2023-02-01T14:43:46;96650;;;5.2;76
68891;BME280;55932;48.702;8.884;2023-02-01T14:45:49;96650;;;5.2;76
68891;BME280;55932;48.702;8.884;2023-02-01T14:56:07;96660;;;5.2;76
68891;BME280;55932;48.702;8.884;2023-02-01T15:03:48;96640;;;5.2;76
68891;BME280;55932;48.702;8.884;2023-02-01T15:06:03;96670;;;5.2;76
68891;BME280;55932;48.702;8.884;2023-02-01T15:08:35;96660;;;5.2;76
68891;BME280;55932;48.702;8.884;2023-02-01T15:11:13;96670;;;5.3;76
68891;BME280;55932;48.702;8.884;2023-02-01T15:16:10;96690;;;5.4;76
68891;BME280;55932;48.702;8.884;2023-02-01T15:18:37;96680;;;5.4;75.5
68891;BME280;55932;48.702;8.884;2023-02-01T15:23:32;96690;;;5.5;75.5
68891;BME280;55932;48.702;8.884;2023-02-01T15:26:02;96680;;;5.5;75.5
68891;BME280;55932;48.702;8.884;2023-02-01T15:28:33;96690;;;5.4;75.5
68891;BME280;55932;48.702;8.884;2023-02-01T15:31:04;96680;;;5.4;75.5
68891;BME280;55932;48.702;8.884;2023-02-01T15:38:38;96670;;;5.3;76
68891;BME280;55932;48.702;8.884;2023-02-01T15:44:05;96670;;;5.2;76
68891;BME280;55932;48.702;8.884;2023-02-01T15:46:24;96680;;;5.1;76
68891;BME280;55932;48.702;8.884;2023-02-01T15:51:17;96690;;;5.1;76
68891;BME280;55932;48.702;8.884;2023-02-01T15:53:46;96680;;;5;76
68891;BME280;55932;48.702;8.884;2023-02-01T15:56:20;96680;;;5;76
68891;BME280;55932;48.702;8.884;2023-02-01T15:58:48;96680;;;4.9;76
68891;BME280;55932;48.702;8.884;2023-02-01T16:04:04;96690;;;4.9;76
68891;BME280;55932;48.702;8.884;2023-02-01T16:06:32;96690;;;4.9;76
68891;BME280;55932;48.702;8.884;2023-02-01T16:09:11;96680;;;4.9;76
68891;BME280;55932;48.702;8.884;2023-02-01T16:11:22;96680;;;4.9;76
68891;BME280;55932;48.702;8.884;2023-02-01T16:13:50;96690;;;4.9;76
68891;BME280;55932;48.702;8.884;2023-02-01T16:18:46;96700;;;4.7;76
68891;BME280;55932;48.702;8.884;2023-02-01T16:21:16;96700;;;4.7;76
68891;BME280;55932;48.702;8.884;2023-02-01T16:23:49;96700;;;4.7;76
68891;BME280;55932;48.702;8.884;2023-02-01T16:31:21;96690;;;4.6;76
68891;BME280;55932;48.702;8.884;2023-02-01T16:33:55;96700;;;4.6;76
68891;BME280;55932;48.702;8.884;2023-02-01T16:38:58;96700;;;4.6;76
68891;BME280;55932;48.702;8.884;2023-02-01T16:41:29;96700;;;4.6;76
68891;BME280;55932;48.702;8.884;2023-02-01T16:44:00;96700;;;4.6;76
68891;BME280;55932;48.702;8.884;2023-02-01T16:48:56;96710;;;4.5;76
68891;BME280;55932;48.702;8.884;2023-02-01T16:51:27;96720;;;4.5;76
68891;BME280;55932;48.702;8.884;2023-02-01T17:01:29;96740;;;4.5;76
68891;BME280;55932;48.702;8.884;2023-02-01T17:04:00;96740;;;4.5;76
68891;BME280;55932;48.702;8.884;2023-02-01T17:09:14;96740;;;4.5;76
68891;BME280;55932;48.702;8.884;2023-02-01T17:11:45;96740;;;4.5;76
68891;BME280;55932;48.702;8.884;2023-02-01T17:16:38;96740;;;4.5;76
68891;BME280;55932;48.702;8.884;2023-02-01T17:19:11;96740;;;4.5;76
68891;BME280;55932;48.702;8.884;2023-02-01T17:21:47;96740;;;4.5;76
68891;BME280;55932;48.702;8.884;2023-02-01T17:24:12;96740;;;4.5;76
68891;BME280;55932;48.702;8.884;2023-02-01T17:31:56;96740;;;4.5;76
68891;BME280;55932;48.702;8.884;2023-02-01T17:34:19;96740;;;4.5;76
68891;BME280;55932;48.702;8.884;2023-02-01T17:39:14;96750;;;4.5;76
68891;BME280;55932;48.702;8.884;2023-02-01T17:41:51;96750;;;4.5;76
68891;BME280;55932;48.702;8.884;2023-02-01T17:44:15;96750;;;4.5;76
68891;BME280;55932;48.702;8.884;2023-02-01T17:46:42;96740;;;4.5;76
68891;BME280;55932;48.702;8.884;2023-02-01T17:56:42;96740;;;4.1;76.5
68891;BME280;55932;48.702;8.884;2023-02-01T17:59:13;96740;;;4;77
68891;BME280;55932;48.702;8.884;2023-02-01T18:01:43;96740;;;4.2;76.5
68891;BME280;55932;48.702;8.884;2023-02-01T18:04:15;96740;;;4.4;76.5
68891;BME280;55932;48.702;8.884;2023-02-01T18:06:47;96740;;;4.6;76
68891;BME280;55932;48.702;8.884;2023-02-01T18:09:16;96740;;;4.7;76
68891;BME280;55932;48.702;8.884;2023-02-01T18:11:46;96740;;;4.7;76
68891;BME280;55932;48.702;8.884;2023-02-01T18:19:25;96750;;;4.7;76
68891;BME280;55932;48.702;8.884;2023-02-01T18:21:56;96750;;;4.6;76
68891;BME280;55932;48.702;8.884;2023-02-01T18:24:27;96740;;;4.4;76
68891;BME280;55932;48.702;8.884;2023-02-01T18:26:53;96750;;;4.3;76
68891;BME280;55932;48.702;8.884;2023-02-01T18:29:21;96740;;;4.1;76
68891;BME280;55932;48.702;8.884;2023-02-01T18:31:53;96750;;;4.1;76.5
68891;BME280;55932;48.702;8.884;2023-02-01T18:34:24;96740;;;4.1;76.5
68891;BME280;55932;48.702;8.884;2023-02-01T18:36:54;96750;;;4.2;76.5
68891;BME280;55932;48.702;8.884;2023-02-01T18:39:24;96750;;;4.3;76.5
68891;BME280;55932;48.702;8.884;2023-02-01T18:41:55;96750;;;4.3;76.5
68891;BME280;55932;48.702;8.884;2023-02-01T18:49:28;96760;;;4.4;76.5
68891;BME280;55932;48.702;8.884;2023-02-01T18:52:05;96750;;;4.4;76.5
68891;BME280;55932;48.702;8.884;2023-02-01T18:57:06;96750;;;4.7;76
68891;BME280;55932;48.702;8.884;2023-02-01T18:59:38;96750;;;4.7;76
68891;BME280;55932;48.702;8.884;2023-02-01T19:04:32;96750;;;4.7;76
68891;BME280;55932;48.702;8.884;2023-02-01T19:09:33;96750;;;4.7;76
68891;BME280;55932;48.702;8.884;2023-02-01T19:12:04;96760;;;4.7;76
68891;BME280;55932;48.702;8.884;2023-02-01T19:14:36;96750;;;4.8;76
68891;BME280;55932;48.702;8.884;2023-02-01T19:19:37;96750;;;4.8;76
68891;BME280;55932;48.702;8.884;2023-02-01T19:22:07;96750;;;4.8;76
68891;BME280;55932;48.702;8.884;2023-02-01T19:24:38;96750;;;4.8;76
68891;BME280;55932;48.702;8.884;2023-02-01T19:27:09;96740;;;4.8;76
68891;BME280;55932;48.702;8.884;2023-02-01T19:29:53;96740;;;4.8;76
68891;BME280;55932;48.702;8.884;2023-02-01T19:32:23;96740;;;4.8;76
68891;BME280;55932;48.702;8.884;2023-02-01T19:34:47;96740;;;4.8;76
68891;BME280;55932;48.702;8.884;2023-02-01T19:37:18;96740;;;4.8;76
68891;BME280;55932;48.702;8.884;2023-02-01T19:39:56;96740;;;4.8;76
68891;BME280;55932;48.702;8.884;2023-02-01T19:44:51;96730;;;4.7;76
68891;BME280;55932;48.702;8.884;2023-02-01T19:49:59;96730;;;4.6;76.5
68891;BME280;55932;48.702;8.884;2023-02-01T19:52:29;96740;;;4.8;76
68891;BME280;55932;48.702;8.884;2023-02-01T19:55:00;96740;;;4.8;76
68891;BME280;55932;48.702;8.884;2023-02-01T19:59:54;96740;;;4.8;76
68891;BME280;55932;48.702;8.884;2023-02-01T20:02:25;96740;;;4.8;76
68891;BME280;55932;48.702;8.884;2023-02-01T20:04:56;96740;;;4.8;76
68891;BME280;55932;48.702;8.884;2023-02-01T20:07:34;96740;;;4.8;76
68891;BME280;55932;48.702;8.884;2023-02-01T20:12:42;96730;;;4.8;76
68891;BME280;55932;48.702;8.884;2023-02-01T20:17:36;96730;;;4.8;76
68891;BME280;55932;48.702;8.884;2023-02-01T20:20:07;96730;;;4.8;76
68891;BME280;55932;48.702;8.884;2023-02-01T20:22:37;96730;;;4.8;76
68891;BME280;55932;48.702;8.884;2023-02-01T20:27:31;96740;;;4.8;76
68891;BME280;55932;48.702;8.884;2023-02-01T20:30:01;96750;;;4.8;76
68891;BME280;55932;48.702;8.884;2023-02-01T20:32:33;96740;;;4.8;76
68891;BME280;55932;48.702;8.884;2023-02-01T20:35:10;96750;;;4.9;76
68891;BME280;55932;48.702;8.884;2023-02-01T20:37:48;96760;;;4.8;76
68891;BME280;55932;48.702;8.884;2023-02-01T20:40:11;96760;;;4.8;76
68891;BME280;55932;48.702;8.884;2023-02-01T20:45:12;96770;;;4.8;76
68891;BME280;55932;48.702;8.884;2023-02-01T20:47:42;96770;;;4.8;76
68891;BME280;55932;48.702;8.884;2023-02-01T20:50:12;96760;;;4.8;76
68891;BME280;55932;48.702;8.884;2023-02-01T20:52:43;96770;;;4.8;76
68891;BME280;55932;48.702;8.884;2023-02-01T20:55:12;96780;;;4.8;76